Time;durP1;ratioP1;P1;durP2;ratioP2;P2;SDS_P1;SDS_P2;PMS_P1;PMS_P2;Temp;Humidity;BMP_temperature;BMP_pressure;BME280_temperature;BME280_humidity;BME280_pressure;Samples;Min_cycle;Max_cycle;Signal;HPM_P1;HPM_P2
2023/04/28 00:00:30;;;;;;;0.10;0.10;;;4.80;99.90;;;;;;4952623;28;20050;-78
2023/04/28 00:02:56;;;;;;;0.25;0.25;;;4.70;99.90;;;;;;4963032;28;20049;-78
2023/04/28 00:05:22;;;;;;;0.98;0.98;;;4.70;99.90;;;;;;4963293;28;20049;-78
2023/04/28 00:07:48;;;;;;;1.25;1.08;;;4.70;99.90;;;;;;4963304;28;20050;-78
2023/04/28 00:10:14;;;;;;;0.57;0.57;;;4.70;99.90;;;;;;4961451;28;20130;-79
2023/04/28 00:12:39;;;;;;;0.22;0.22;;;4.70;99.90;;;;;;4963850;28;20181;-79
2023/04/28 00:15:06;;;;;;;0.60;0.60;;;4.70;99.90;;;;;;4964743;28;20132;-79
2023/04/28 00:17:32;;;;;;;0.03;0.03;;;4.70;99.90;;;;;;4968466;28;20639;-79
2023/04/28 00:19:57;;;;;;;3.38;1.38;;;4.70;99.90;;;;;;4970780;28;20070;-79
2023/04/28 00:22:23;;;;;;;2.42;0.80;;;4.80;31.50;;;;;;4969422;28;20144;-79
2023/04/28 00:24:49;;;;;;;0.60;0.60;;;4.90;1.00;;;;;;4970219;28;20528;-79
2023/04/28 00:27:15;;;;;;;0.60;0.60;;;4.90;99.90;;;;;;4970988;28;20046;-79
2023/04/28 00:29:40;;;;;;;0.35;0.35;;;5.00;1.00;;;;;;4970130;28;20055;-79
2023/04/28 00:32:06;;;;;;;0.10;0.10;;;5.00;99.90;;;;;;4970301;28;20082;-79
2023/04/28 00:34:32;;;;;;;0.65;0.65;;;5.00;99.90;;;;;;4970024;28;20046;-79
2023/04/28 00:36:58;;;;;;;0.00;0.00;;;5.00;99.90;;;;;;4970436;28;20047;-79
2023/04/28 00:39:25;;;;;;;0.00;0.00;;;5.00;99.90;;;;;;4969844;28;20069;-79
2023/04/28 00:41:51;;;;;;;0.85;0.85;;;5.00;99.90;;;;;;4969725;28;20520;-79
2023/04/28 00:44:16;;;;;;;0.05;0.05;;;5.00;99.90;;;;;;4970354;28;20130;-79
2023/04/28 00:46:43;;;;;;;0.25;0.25;;;5.10;99.90;;;;;;4970307;28;20251;-80
2023/04/28 00:49:09;;;;;;;0.28;0.28;;;5.10;99.90;;;;;;4970107;28;20043;-79
2023/04/28 00:51:35;;;;;;;0.10;0.10;;;5.00;19.10;;;;;;4985171;28;20051;-80
2023/04/28 00:54:00;;;;;;;0.10;0.10;;;5.00;42.90;;;;;;4969865;28;20046;-79
2023/04/28 00:56:30;;;;;;;0.10;0.10;;;5.00;99.90;;;;;;4970302;28;20047;-79
2023/04/28 00:58:56;;;;;;;2.60;1.00;;;5.00;99.90;;;;;;4969341;28;20180;-79
2023/04/28 01:01:22;;;;;;;0.30;0.30;;;5.00;99.90;;;;;;4969038;28;20051;-79
2023/04/28 01:03:48;;;;;;;2.20;0.75;;;5.00;50.10;;;;;;4969298;28;20054;-79
2023/04/28 01:06:15;;;;;;;0.70;0.50;;;5.00;99.90;;;;;;4969413;28;20051;-79
2023/04/28 01:08:41;;;;;;;0.32;0.32;;;5.00;1.00;;;;;;4969909;28;20072;-78
2023/04/28 01:11:09;;;;;;;0.45;0.45;;;5.10;16.30;;;;;;4968775;28;20408;-80
2023/04/28 01:13:35;;;;;;;0.68;0.68;;;5.10;99.90;;;;;;4968854;28;20463;-79
2023/04/28 01:16:00;;;;;;;0.22;0.22;;;5.10;99.90;;;;;;4969928;28;20058;-79
2023/04/28 01:18:26;;;;;;;0.47;0.38;;;5.10;39.30;;;;;;4969705;28;20043;-78
2023/04/28 01:20:52;;;;;;;0.68;0.55;;;5.10;99.90;;;;;;4968918;28;20078;-79
2023/04/28 01:23:18;;;;;;;0.73;0.70;;;5.10;99.90;;;;;;4968994;28;20578;-79
2023/04/28 01:25:43;;;;;;;0.50;0.40;;;5.00;99.90;;;;;;4968061;28;20100;-79
2023/04/28 01:28:10;;;;;;;0.47;0.35;;;5.10;1.00;;;;;;4968685;28;20054;-79
2023/04/28 01:30:36;;;;;;;0.22;0.22;;;5.10;1.00;;;;;;4969050;28;20053;-79
2023/04/28 01:33:02;;;;;;;0.28;0.28;;;5.10;1.00;;;;;;4968946;28;20054;-79
2023/04/28 01:35:28;;;;;;;0.22;0.22;;;5.10;99.90;;;;;;4969311;28;20504;-79
2023/04/28 01:37:54;;;;;;;0.60;0.60;;;5.10;99.90;;;;;;4969110;28;20050;-78
2023/04/28 01:40:20;;;;;;;0.52;0.52;;;5.10;99.90;;;;;;4969102;28;20519;-79
2023/04/28 01:42:46;;;;;;;5.70;2.20;;;5.10;99.90;;;;;;4969365;28;20098;-80
2023/04/28 01:45:11;;;;;;;0.10;0.10;;;5.10;99.90;;;;;;4968842;28;20047;-79
2023/04/28 01:47:37;;;;;;;1.17;0.95;;;5.10;99.90;;;;;;4969043;28;20468;-79
2023/04/28 01:50:04;;;;;;;1.95;1.08;;;5.00;99.90;;;;;;4968748;28;20046;-79
2023/04/28 01:52:29;;;;;;;0.00;0.00;;;5.10;99.90;;;;;;4968084;28;20128;-79
2023/04/28 01:54:55;;;;;;;0.38;0.32;;;5.40;1.00;;;;;;4968777;28;20047;-79
2023/04/28 01:57:21;;;;;;;0.22;0.22;;;5.10;1.00;;;;;;4968687;28;20057;-79
2023/04/28 01:59:47;;;;;;;0.10;0.10;;;5.10;1.00;;;;;;4968193;28;20122;-79
2023/04/28 02:02:13;;;;;;;0.50;0.50;;;5.10;18.80;;;;;;4968296;28;20049;-79
2023/04/28 02:04:38;;;;;;;0.28;0.28;;;5.10;58.70;;;;;;4968458;28;20074;-79
2023/04/28 02:07:05;;;;;;;0.68;0.68;;;5.10;70.60;;;;;;4968131;28;20050;-79
2023/04/28 02:09:31;;;;;;;0.95;0.88;;;5.00;99.90;;;;;;4967745;28;20122;-79
2023/04/28 02:11:58;;;;;;;1.90;1.75;;;5.00;99.90;;;;;;4959460;28;20059;-79
2023/04/28 02:14:24;;;;;;;0.10;0.10;;;5.00;99.90;;;;;;4969721;28;20432;-79
2023/04/28 02:16:50;;;;;;;2.13;1.48;;;5.00;99.90;;;;;;4968477;28;20047;-79
2023/04/28 02:19:15;;;;;;;0.55;0.55;;;5.00;99.90;;;;;;4969245;28;20049;-79
2023/04/28 02:21:42;;;;;;;0.93;0.82;;;5.00;99.90;;;;;;4969059;28;20396;-80
2023/04/28 02:24:08;;;;;;;0.30;0.30;;;5.00;99.90;;;;;;4968160;28;20046;-80
2023/04/28 02:26:34;;;;;;;0.55;0.55;;;5.00;99.90;;;;;;4968214;28;20066;-79
2023/04/28 02:29:00;;;;;;;0.70;0.57;;;5.00;99.90;;;;;;4969441;28;20077;-80
2023/04/28 02:31:26;;;;;;;2.10;0.73;;;5.00;99.90;;;;;;4968549;28;20051;-79
2023/04/28 02:33:52;;;;;;;0.43;0.43;;;5.00;99.90;;;;;;4968301;28;20047;-79
2023/04/28 02:36:17;;;;;;;0.10;0.10;;;5.00;99.90;;;;;;4968745;28;20050;-78
2023/04/28 02:38:43;;;;;;;1.65;1.15;;;5.00;99.90;;;;;;4967495;28;20046;-79
2023/04/28 02:41:09;;;;;;;0.10;0.10;;;5.00;99.90;;;;;;4968237;28;20468;-79
2023/04/28 02:43:36;;;;;;;1.60;1.50;;;5.10;49.10;;;;;;4968685;28;20050;-79
2023/04/28 02:46:05;;;;;;;1.38;0.85;;;5.10;74.40;;;;;;4968115;28;20126;-78
2023/04/28 02:48:32;;;;;;;1.30;1.15;;;5.10;71.80;;;;;;4968520;28;20501;-79
2023/04/28 02:50:57;;;;;;;0.35;0.35;;;5.10;97.20;;;;;;4968176;28;20058;-79
2023/04/28 02:53:23;;;;;;;2.50;1.77;;;5.10;52.40;;;;;;4968857;28;20100;-79
2023/04/28 02:55:49;;;;;;;3.33;1.98;;;5.10;89.80;;;;;;4966861;28;20130;-78
2023/04/28 02:58:16;;;;;;;1.42;1.33;;;5.10;94.20;;;;;;4972694;28;20080;-78
2023/04/28 03:00:42;;;;;;;0.60;0.60;;;5.10;77.30;;;;;;4975894;28;20050;-78
2023/04/28 03:03:07;;;;;;;1.85;1.70;;;5.10;65.00;;;;;;4972624;28;20056;-80
2023/04/28 03:05:33;;;;;;;0.73;0.73;;;5.10;88.10;;;;;;4974190;28;20042;-79
2023/04/28 03:07:59;;;;;;;5.78;1.75;;;5.00;97.70;;;;;;4974327;28;20058;-79
2023/04/28 03:10:25;;;;;;;1.33;0.80;;;5.00;1.00;;;;;;4973216;28;20047;-80
2023/04/28 03:12:50;;;;;;;1.45;1.35;;;6.10;55.00;;;;;;4968335;28;20069;-79
2023/04/28 03:15:16;;;;;;;1.85;1.30;;;4.90;66.10;;;;;;4967938;28;20055;-79
2023/04/28 03:17:42;;;;;;;1.25;1.15;;;4.90;99.90;;;;;;4969265;28;20208;-80
2023/04/28 03:20:08;;;;;;;4.20;1.65;;;4.90;99.90;;;;;;4969732;28;20065;-79
2023/04/28 03:22:35;;;;;;;0.43;0.43;;;4.90;99.90;;;;;;4999727;28;20047;-79
2023/04/28 03:25:01;;;;;;;1.75;1.65;;;4.90;97.10;;;;;;4969258;28;20109;-79
2023/04/28 03:27:27;;;;;;;0.20;0.20;;;4.90;99.90;;;;;;4999861;28;20055;-79
2023/04/28 03:29:53;;;;;;;4.72;1.58;;;5.00;26.60;;;;;;4969494;28;20102;-79
2023/04/28 03:32:19;;;;;;;0.30;0.30;;;5.00;59.90;;;;;;4969625;28;20055;-80
2023/04/28 03:34:45;;;;;;;1.38;1.27;;;5.00;94.00;;;;;;4971264;28;20047;-79
2023/04/28 03:37:11;;;;;;;0.50;0.50;;;4.90;61.00;;;;;;5009736;28;20673;-79
2023/04/28 03:39:36;;;;;;;1.65;1.55;;;4.90;45.30;;;;;;4979447;28;20519;-78
2023/04/28 03:42:02;;;;;;;1.13;1.05;;;4.90;95.20;;;;;;4979192;28;20042;-79
2023/04/28 03:44:28;;;;;;;4.45;1.23;;;5.00;89.30;;;;;;4979487;28;20043;-78
2023/04/28 03:46:53;;;;;;;7.78;1.15;;;4.90;90.00;;;;;;4980545;28;20485;-79
2023/04/28 03:49:19;;;;;;;2.97;1.30;;;5.00;1.00;;;;;;4980365;28;20046;-78
2023/04/28 03:51:45;;;;;;;1.48;1.38;;;5.00;1.00;;;;;;4984005;28;20069;-79
2023/04/28 03:54:11;;;;;;;1.10;1.00;;;5.00;30.20;;;;;;4982932;28;20027;-79
2023/04/28 03:56:36;;;;;;;0.80;0.80;;;5.00;28.70;;;;;;4982868;28;20089;-79
2023/04/28 03:59:02;;;;;;;1.08;0.95;;;5.00;1.00;;;;;;4976921;28;20534;-79
2023/04/28 04:01:28;;;;;;;0.30;0.30;;;5.00;1.00;;;;;;4971334;28;20562;-79
2023/04/28 04:03:53;;;;;;;1.05;1.02;;;5.00;1.00;;;;;;4971564;28;20471;-79
2023/04/28 04:06:21;;;;;;;1.55;1.48;;;5.00;1.00;;;;;;4970636;28;20106;-79
2023/04/28 04:08:47;;;;;;;1.13;1.10;;;5.00;1.00;;;;;;4971031;28;20492;-79
2023/04/28 04:11:12;;;;;;;1.85;1.45;;;5.00;48.50;;;;;;4971297;28;20051;-79
2023/04/28 04:13:38;;;;;;;0.95;0.80;;;5.00;20.50;;;;;;4971695;28;20065;-80
2023/04/28 04:16:04;;;;;;;1.80;1.27;;;5.00;8.20;;;;;;4970462;28;20072;-80
2023/04/28 04:18:30;;;;;;;1.38;0.98;;;5.00;1.00;;;;;;5002788;28;20716;-79
2023/04/28 04:20:56;;;;;;;1.30;1.20;;;5.00;1.00;;;;;;4970609;28;20082;-79
2023/04/28 04:23:22;;;;;;;0.10;0.10;;;5.10;1.00;;;;;;5001997;28;20046;-79
2023/04/28 04:25:48;;;;;;;0.50;0.50;;;5.10;1.00;;;;;;4971455;28;20122;-79
2023/04/28 04:28:14;;;;;;;0.52;0.52;;;5.10;1.00;;;;;;4970853;28;20057;-80
2023/04/28 04:30:40;;;;;;;1.13;0.65;;;5.10;1.00;;;;;;4971554;28;20081;-79
2023/04/28 04:33:06;;;;;;;1.60;1.50;;;5.10;99.90;;;;;;4971149;28;20071;-78
2023/04/28 04:35:32;;;;;;;0.73;0.73;;;5.10;1.00;;;;;;4971463;28;20047;-79
2023/04/28 04:37:58;;;;;;;0.13;0.13;;;5.10;1.00;;;;;;4970476;28;20039;-79
2023/04/28 04:40:24;;;;;;;0.30;0.30;;;5.10;1.00;;;;;;4970218;28;20149;-79
2023/04/28 04:42:50;;;;;;;2.00;1.30;;;5.10;1.00;;;;;;4969998;28;20130;-79
2023/04/28 04:45:16;;;;;;;1.15;1.05;;;5.20;1.00;;;;;;4969421;28;20051;-78
2023/04/28 04:47:42;;;;;;;0.43;0.43;;;5.20;1.00;;;;;;4969326;28;20055;-79
2023/04/28 04:50:09;;;;;;;0.22;0.22;;;5.20;1.00;;;;;;4971208;28;20046;-79
2023/04/28 04:52:36;;;;;;;0.77;0.45;;;5.20;99.90;;;;;;4970111;28;20130;-78
2023/04/28 04:55:01;;;;;;;1.20;1.10;;;5.20;99.90;;;;;;4970233;28;20116;-79
2023/04/28 04:57:27;;;;;;;1.65;1.02;;;5.30;1.00;;;;;;4970366;28;20507;-79
2023/04/28 04:59:53;;;;;;;7.22;1.45;;;5.30;99.90;;;;;;4970787;28;20051;-80
2023/04/28 05:02:18;;;;;;;0.63;0.63;;;5.30;99.90;;;;;;4968807;28;20476;-79
2023/04/28 05:04:44;;;;;;;1.65;1.02;;;5.30;99.90;;;;;;4970654;28;20066;-79
2023/04/28 05:07:09;;;;;;;0.68;0.65;;;5.30;99.90;;;;;;4970377;28;20035;-79
2023/04/28 05:09:35;;;;;;;0.57;0.57;;;5.30;99.90;;;;;;4968986;28;20557;-79
2023/04/28 05:12:01;;;;;;;0.47;0.32;;;5.30;99.90;;;;;;4968511;28;20092;-78
2023/04/28 05:14:26;;;;;;;4.40;2.22;;;5.40;1.00;;;;;;4968300;28;20111;-78
2023/04/28 05:16:52;;;;;;;0.90;0.85;;;5.40;1.00;;;;;;4967731;28;20046;-79
2023/04/28 05:19:18;;;;;;;0.68;0.68;;;5.50;99.90;;;;;;4968699;28;20069;-79
2023/04/28 05:21:46;;;;;;;1.95;1.65;;;5.50;99.90;;;;;;4968071;28;20050;-79
2023/04/28 05:24:12;;;;;;;4.03;1.40;;;5.60;99.90;;;;;;4968399;28;20058;-78
2023/04/28 05:26:38;;;;;;;0.47;0.47;;;5.60;99.90;;;;;;4967687;28;20046;-79
2023/04/28 05:29:06;;;;;;;3.92;1.52;;;5.60;99.90;;;;;;4968308;28;20465;-80
2023/04/28 05:31:31;;;;;;;0.77;0.77;;;5.70;1.00;;;;;;5019487;28;20068;-79
2023/04/28 05:33:57;;;;;;;0.95;0.95;;;5.80;1.00;;;;;;4999599;28;20349;-79
2023/04/28 05:36:23;;;;;;;1.23;1.13;;;5.80;99.90;;;;;;4970173;28;20172;-79
2023/04/28 05:38:49;;;;;;;0.85;0.85;;;5.80;99.90;;;;;;4970183;28;20047;-79
2023/04/28 05:41:15;;;;;;;1.75;1.30;;;5.90;99.90;;;;;;4970424;28;20058;-80
2023/04/28 05:43:40;;;;;;;1.23;0.68;;;6.00;99.90;;;;;;4969743;28;20475;-79
2023/04/28 05:46:06;;;;;;;12.70;2.35;;;6.10;1.00;;;;;;4970589;28;20049;-80
2023/04/28 05:48:32;;;;;;;4.15;1.90;;;6.20;76.10;;;;;;4969863;28;20050;-79
2023/04/28 05:50:57;;;;;;;1.30;1.20;;;6.30;1.00;;;;;;4969330;28;20054;-79
2023/04/28 05:53:23;;;;;;;2.72;1.63;;;6.30;99.90;;;;;;4969448;28;20047;-79
2023/04/28 05:55:48;;;;;;;0.63;0.63;;;6.40;99.90;;;;;;4970096;28;20051;-79
2023/04/28 05:58:14;;;;;;;5.97;1.50;;;6.40;99.90;;;;;;4969744;28;20054;-78
2023/04/28 06:00:40;;;;;;;1.00;0.90;;;6.40;1.00;;;;;;4969411;28;20097;-80
2023/04/28 06:03:09;;;;;;;2.50;1.25;;;6.40;1.00;;;;;;4969504;28;20072;-79
2023/04/28 06:05:35;;;;;;;0.55;0.55;;;6.40;60.70;;;;;;4969738;28;20047;-79
2023/04/28 06:08:02;;;;;;;0.57;0.57;;;6.40;99.90;;;;;;4969488;28;20050;-79
2023/04/28 06:10:28;;;;;;;2.92;2.33;;;6.60;99.90;;;;;;4968908;28;20047;-79
2023/04/28 06:12:53;;;;;;;0.40;0.40;;;6.60;99.90;;;;;;4966747;28;20059;-79
2023/04/28 06:15:19;;;;;;;0.68;0.68;;;6.60;99.90;;;;;;4967363;28;20404;-80
2023/04/28 06:17:47;;;;;;;1.30;1.20;;;6.60;1.00;;;;;;4967313;28;20053;-80
2023/04/28 06:20:13;;;;;;;1.27;1.00;;;6.70;1.00;;;;;;4965637;28;20047;-81
2023/04/28 06:22:39;;;;;;;0.80;0.80;;;6.80;99.90;;;;;;4965118;28;20050;-79
2023/04/28 06:25:06;;;;;;;0.38;0.35;;;6.80;99.90;;;;;;4965161;28;20089;-79
2023/04/28 06:27:31;;;;;;;1.25;1.02;;;6.90;99.90;;;;;;4964928;28;20045;-80
2023/04/28 06:29:58;;;;;;;1.00;0.90;;;6.90;1.00;;;;;;4964707;28;20248;-79
2023/04/28 06:32:23;;;;;;;0.38;0.38;;;7.60;78.90;;;;;;4965389;28;20100;-79
2023/04/28 06:34:49;;;;;;;0.75;0.68;;;6.80;99.90;;;;;;4965591;28;20054;-80
2023/04/28 06:37:15;;;;;;;0.95;0.95;;;6.80;19.10;;;;;;4965681;28;20392;-80
2023/04/28 06:39:40;;;;;;;1.75;1.55;;;6.90;99.90;;;;;;4964857;28;20084;-79
2023/04/28 06:42:06;;;;;;;2.60;2.10;;;6.90;99.90;;;;;;4966227;28;20043;-80
2023/04/28 06:44:31;;;;;;;2.05;1.80;;;7.10;38.60;;;;;;4966466;28;20055;-80
2023/04/28 06:46:57;;;;;;;6.95;1.45;;;7.20;1.00;;;;;;4964586;28;20054;-80
2023/04/28 06:49:23;;;;;;;2.42;1.17;;;7.30;1.00;;;;;;4967226;28;20063;-80
2023/04/28 06:51:48;;;;;;;3.13;2.00;;;7.50;99.10;;;;;;4965674;28;20055;-79
2023/04/28 06:54:15;;;;;;;0.93;0.88;;;7.60;99.90;;;;;;4965607;28;20717;-79
2023/04/28 06:56:41;;;;;;;2.08;1.58;;;7.50;1.00;;;;;;4965098;28;20138;-80
2023/04/28 06:59:07;;;;;;;6.18;1.83;;;7.50;1.00;;;;;;4964983;28;20520;-79
2023/04/28 07:01:32;;;;;;;0.77;0.63;;;7.60;22.40;;;;;;4965987;28;20209;-80
2023/04/28 07:03:58;;;;;;;0.88;0.88;;;7.60;1.00;;;;;;4966326;28;20541;-80
2023/04/28 07:06:26;;;;;;;2.30;0.77;;;7.60;99.90;;;;;;4966625;28;20047;-80
2023/04/28 07:08:52;;;;;;;1.05;1.00;;;7.60;99.90;;;;;;4965639;28;20126;-80
2023/04/28 07:11:18;;;;;;;3.45;1.75;;;7.70;79.80;;;;;;4967284;28;20047;-80
2023/04/28 07:13:48;;;;;;;3.75;1.13;;;7.80;1.00;;;;;;4965207;28;20100;-80
2023/04/28 07:16:14;;;;;;;19.02;0.70;;;8.00;56.80;;;;;;4966149;28;20047;-80
2023/04/28 07:18:40;;;;;;;0.82;0.77;;;8.10;99.90;;;;;;4966224;28;20038;-79
2023/04/28 07:21:05;;;;;;;1.05;0.95;;;8.10;99.90;;;;;;4965882;28;20136;-79
2023/04/28 07:23:31;;;;;;;0.05;0.05;;;8.20;32.00;;;;;;4967091;28;20055;-80
2023/04/28 07:25:57;;;;;;;1.08;0.85;;;8.40;64.40;;;;;;4966231;28;20047;-79
2023/04/28 07:28:23;;;;;;;1.65;1.27;;;8.60;1.00;;;;;;4967525;28;20102;-80
2023/04/28 07:30:49;;;;;;;0.95;0.88;;;8.80;1.00;;;;;;4967341;28;20393;-80
2023/04/28 07:33:14;;;;;;;0.73;0.70;;;8.70;99.90;;;;;;4966375;28;20401;-80
2023/04/28 07:35:40;;;;;;;0.22;0.22;;;8.60;99.90;;;;;;4967144;28;20050;-79
2023/04/28 07:38:06;;;;;;;1.10;0.50;;;8.70;99.90;;;;;;4966669;28;20520;-80
2023/04/28 07:40:31;;;;;;;4.00;0.85;;;8.70;99.90;;;;;;4965786;28;20122;-80
2023/04/28 07:42:57;;;;;;;5.07;0.73;;;8.70;99.90;;;;;;4966737;28;20135;-80
2023/04/28 07:45:23;;;;;;;0.85;0.45;;;8.60;99.90;;;;;;4966750;28;20382;-80
2023/04/28 07:47:48;;;;;;;2.90;1.15;;;8.80;99.90;;;;;;4966378;28;20046;-80
2023/04/28 07:50:15;;;;;;;2.70;1.88;;;8.90;99.90;;;;;;4965919;28;20051;-80
2023/04/28 07:52:40;;;;;;;1.67;0.90;;;9.10;99.90;;;;;;4964401;28;20078;-80
2023/04/28 07:55:06;;;;;;;1.35;1.25;;;8.90;99.90;;;;;;4965480;28;20093;-79
2023/04/28 07:57:32;;;;;;;2.35;1.48;;;8.80;99.90;;;;;;4965974;28;20488;-80
2023/04/28 07:59:57;;;;;;;0.57;0.57;;;9.00;99.90;;;;;;4966600;28;20046;-79
2023/04/28 08:02:24;;;;;;;0.50;0.50;;;9.20;99.90;;;;;;4960791;28;20061;-78
2023/04/28 08:04:50;;;;;;;1.08;0.98;;;9.40;99.90;;;;;;4959943;28;20616;-78
2023/04/28 08:07:16;;;;;;;2.35;1.25;;;9.60;99.90;;;;;;4959855;28;20569;-78
2023/04/28 08:09:45;;;;;;;2.05;1.02;;;9.80;99.90;;;;;;4962725;28;20520;-77
2023/04/28 08:12:12;;;;;;;4.72;0.50;;;10.00;99.90;;;;;;4964997;28;20108;-78
2023/04/28 08:14:37;;;;;;;0.45;0.45;;;10.90;99.90;;;;;;4959967;28;20069;-78
2023/04/28 08:17:03;;;;;;;1.13;0.80;;;10.30;99.90;;;;;;4959742;28;20042;-78
2023/04/28 08:19:29;;;;;;;0.70;0.47;;;10.20;99.90;;;;;;4959673;28;20047;-78
2023/04/28 08:21:54;;;;;;;8.20;2.83;;;10.20;99.90;;;;;;4959662;28;20100;-78
2023/04/28 08:24:20;;;;;;;2.53;1.65;;;10.40;99.90;;;;;;4959766;28;20050;-78
2023/04/28 08:26:46;;;;;;;0.22;0.22;;;10.30;99.90;;;;;;4965438;28;20080;-80
2023/04/28 08:29:11;;;;;;;1.08;0.50;;;10.20;99.90;;;;;;4966678;28;20039;-80
2023/04/28 08:31:37;;;;;;;2.05;1.15;;;9.90;99.90;;;;;;4968049;28;20043;-80
2023/04/28 08:34:03;;;;;;;0.93;0.75;;;9.90;99.90;;;;;;4966555;28;20042;-79
2023/04/28 08:36:31;;;;;;;6.30;1.25;;;9.90;99.90;;;;;;4970419;28;20050;-79
2023/04/28 08:38:58;;;;;;;2.33;0.77;;;9.90;99.90;;;;;;4970690;28;20412;-80
2023/04/28 08:41:26;;;;;;;0.10;0.10;;;10.00;99.90;;;;;;4971134;28;20078;-80
2023/04/28 08:43:53;;;;;;;0.35;0.30;;;9.80;99.90;;;;;;4971826;28;20061;-80
2023/04/28 08:46:21;;;;;;;1.95;1.15;;;10.00;99.90;;;;;;4971406;28;20067;-80
2023/04/28 08:48:49;;;;;;;0.45;0.40;;;10.20;99.90;;;;;;4970463;28;20086;-80
2023/04/28 08:51:17;;;;;;;2.55;0.63;;;10.00;99.90;;;;;;4970613;28;20046;-80
2023/04/28 08:53:50;;;;;;;2.05;1.42;;;10.10;99.90;;;;;;4970724;28;20051;-79
2023/04/28 08:56:17;;;;;;;0.10;0.10;;;10.10;99.90;;;;;;4970053;28;20073;-79
2023/04/28 08:58:43;;;;;;;2.28;1.50;;;9.80;99.90;;;;;;4970269;28;20115;-80
2023/04/28 09:01:09;;;;;;;2.20;1.33;;;9.50;99.90;;;;;;4970284;28;20492;-80
2023/04/28 09:03:35;;;;;;;0.35;0.32;;;9.70;1.00;;;;;;4970140;28;20054;-81
2023/04/28 09:06:01;;;;;;;0.35;0.32;;;10.00;99.90;;;;;;4970290;28;20093;-81
2023/04/28 09:08:27;;;;;;;0.82;0.82;;;9.90;99.90;;;;;;4969979;28;20042;-82
2023/04/28 09:11:12;;;;;;;1.00;0.90;;;10.10;1.00;;;;;;4970583;28;20089;-81
2023/04/28 09:13:39;;;;;;;2.28;1.25;;;10.40;99.90;;;;;;4970021;28;20046;-81
2023/04/28 09:16:05;;;;;;;1.45;1.23;;;10.90;1.00;;;;;;4969475;28;20047;-83
2023/04/28 09:18:32;;;;;;;1.33;1.02;;;11.10;99.90;;;;;;4969138;28;20724;-81
2023/04/28 09:21:08;;;;;;;0.77;0.70;;;11.90;99.90;;;;;;4969054;28;20109;-81
2023/04/28 09:23:50;;;;;;;0.43;0.38;;;11.30;1.00;;;;;;4969508;28;20055;-81
2023/04/28 09:26:17;;;;;;;1.23;0.45;;;11.30;1.00;;;;;;4969852;28;20086;-81
2023/04/28 09:28:42;;;;;;;2.00;1.35;;;11.30;99.90;;;;;;4969204;28;20043;-81
2023/04/28 09:31:24;;;;;;;4.00;1.65;;;11.50;22.90;;;;;;4967798;28;20532;-81
2023/04/28 09:33:57;;;;;;;2.92;1.67;;;11.60;99.90;;;;;;4969229;28;20108;-80
2023/04/28 09:36:29;;;;;;;1.20;0.70;;;11.60;1.00;;;;;;4969220;28;20047;-80
2023/04/28 09:38:59;;;;;;;0.93;0.88;;;12.40;1.00;;;;;;4968301;28;20542;-81
2023/04/28 09:41:39;;;;;;;2.83;1.15;;;12.50;99.90;;;;;;4968992;28;20442;-81
2023/04/28 09:44:12;;;;;;;2.08;0.60;;;13.00;99.90;;;;;;4950064;28;20058;-80
2023/04/28 09:46:38;;;;;;;0.65;0.60;;;13.40;99.90;;;;;;4950002;28;20058;-81
2023/04/28 09:49:04;;;;;;;1.20;0.95;;;13.00;99.90;;;;;;4968923;28;20522;-81
2023/04/28 09:51:30;;;;;;;0.80;0.65;;;12.90;99.90;;;;;;4965596;28;20051;-79
2023/04/28 09:54:02;;;;;;;0.32;0.32;;;13.20;99.90;;;;;;4964382;28;20412;-80
2023/04/28 09:56:29;;;;;;;3.63;1.20;;;13.20;99.90;;;;;;4968472;28;20090;-81
2023/04/28 09:58:59;;;;;;;2.70;1.17;;;13.60;99.90;;;;;;4968431;28;20051;-80
2023/04/28 10:01:36;;;;;;;0.73;0.47;;;13.10;99.90;;;;;;4967824;28;20109;-81
2023/04/28 10:04:03;;;;;;;1.55;1.20;;;13.10;99.90;;;;;;4967547;28;20047;-81
2023/04/28 10:06:29;;;;;;;0.52;0.40;;;12.90;99.90;;;;;;4968604;28;20051;-81
2023/04/28 10:08:57;;;;;;;0.93;0.80;;;12.70;99.90;;;;;;4968212;28;20548;-81
2023/04/28 10:11:24;;;;;;;4.03;1.40;;;12.40;99.90;;;;;;4968772;28;20057;-81
2023/04/28 10:13:52;;;;;;;0.30;0.30;;;12.50;99.90;;;;;;4968702;28;20084;-81
2023/04/28 10:16:19;;;;;;;1.35;0.95;;;13.10;99.90;;;;;;4968416;28;20196;-81
2023/04/28 10:18:45;;;;;;;0.65;0.50;;;13.20;99.90;;;;;;4967315;28;20051;-81
2023/04/28 10:21:15;;;;;;;0.35;0.35;;;13.50;99.90;;;;;;4967673;28;20570;-80
2023/04/28 10:24:05;;;;;;;0.45;0.35;;;13.70;99.90;;;;;;4968947;28;20046;-81
2023/04/28 10:26:51;;;;;;;2.03;1.13;;;14.00;99.90;;;;;;4966869;28;20085;-81
2023/04/28 10:29:21;;;;;;;0.00;0.00;;;13.90;99.90;;;;;;4960556;28;20058;-78
2023/04/28 10:32:25;;;;;;;0.73;0.63;;;14.10;99.90;;;;;;4962425;28;20074;-79
2023/04/28 10:34:51;;;;;;;1.30;1.15;;;14.30;99.90;;;;;;4963214;28;20077;-79
2023/04/28 10:37:18;;;;;;;3.10;0.80;;;14.60;99.90;;;;;;4962276;28;20575;-79
2023/04/28 10:40:22;;;;;;;1.10;0.85;;;14.60;99.90;;;;;;4961951;28;20086;-80
2023/04/28 10:42:53;;;;;;;1.27;0.73;;;14.50;99.90;;;;;;4961113;28;20528;-79
2023/04/28 10:45:53;;;;;;;0.20;0.20;;;15.00;99.90;;;;;;4962832;28;20137;-79
2023/04/28 10:48:20;;;;;;;1.10;0.57;;;14.90;99.90;;;;;;4946684;28;20059;-79
2023/04/28 10:51:02;;;;;;;1.85;0.63;;;15.20;99.90;;;;;;4963610;28;20054;-79
2023/04/28 10:53:43;;;;;;;0.77;0.32;;;15.10;99.90;;;;;;4961158;28;20090;-79
2023/04/28 10:56:10;;;;;;;1.70;1.27;;;14.70;99.90;;;;;;4960728;28;20583;-79
2023/04/28 10:58:41;;;;;;;0.13;0.13;;;14.00;99.90;;;;;;4960633;28;20100;-79
2023/04/28 11:01:25;;;;;;;0.80;0.80;;;14.00;99.90;;;;;;4962560;28;20476;-79
2023/04/28 11:04:06;;;;;;;0.47;0.40;;;13.90;99.90;;;;;;4963209;28;20055;-79
2023/04/28 11:06:34;;;;;;;3.30;1.02;;;14.00;99.90;;;;;;4961434;28;20065;-79
2023/04/28 11:09:16;;;;;;;1.27;1.05;;;13.70;99.90;;;;;;4958721;28;20683;-77
2023/04/28 11:11:55;;;;;;;2.10;0.85;;;13.60;99.90;;;;;;4963396;28;20073;-79
2023/04/28 11:14:20;;;;;;;0.47;0.43;;;13.70;99.90;;;;;;4963360;28;20054;-79
2023/04/28 11:16:59;;;;;;;0.32;0.32;;;13.40;99.90;;;;;;4962842;28;20050;-79
2023/04/28 11:19:32;;;;;;;0.50;0.40;;;13.40;99.90;;;;;;4962912;28;20093;-79
2023/04/28 11:22:00;;;;;;;1.13;0.88;;;13.50;99.90;;;;;;4960793;28;20105;-79
2023/04/28 11:24:28;;;;;;;3.42;1.10;;;14.50;99.90;;;;;;4962502;28;20066;-79
2023/04/28 11:26:59;;;;;;;1.10;1.00;;;14.10;99.90;;;;;;4960819;28;20047;-79
2023/04/28 11:29:32;;;;;;;0.25;0.22;;;14.00;99.90;;;;;;4961664;28;20083;-79
2023/04/28 11:31:58;;;;;;;1.10;0.57;;;14.00;99.90;;;;;;4960880;28;20057;-79
2023/04/28 11:34:24;;;;;;;0.57;0.55;;;14.40;99.90;;;;;;4960810;28;20501;-79
2023/04/28 11:36:50;;;;;;;0.85;0.82;;;14.70;99.90;;;;;;4961371;28;20354;-79
2023/04/28 11:39:24;;;;;;;0.30;0.30;;;14.90;99.90;;;;;;4961901;28;20055;-79
2023/04/28 11:41:49;;;;;;;4.28;0.80;;;15.10;99.90;;;;;;4961794;28;20574;-79
2023/04/28 11:44:20;;;;;;;1.77;0.98;;;15.20;99.90;;;;;;4962369;28;20047;-79
2023/04/28 11:46:54;;;;;;;0.50;0.50;;;15.00;99.90;;;;;;4961297;28;20520;-79
2023/04/28 11:49:20;;;;;;;0.00;0.00;;;15.00;99.90;;;;;;4960369;28;20047;-79
2023/04/28 11:51:48;;;;;;;0.32;0.32;;;14.50;99.90;;;;;;4961652;28;20566;-79
2023/04/28 11:54:18;;;;;;;1.17;1.08;;;14.30;99.90;;;;;;4962052;28;20108;-79
2023/04/28 11:56:44;;;;;;;0.80;0.80;;;14.10;99.90;;;;;;4960909;28;20070;-79
2023/04/28 11:59:11;;;;;;;1.80;0.90;;;14.10;99.90;;;;;;4960786;28;20085;-79
2023/04/28 12:01:48;;;;;;;0.25;0.25;;;14.00;99.90;;;;;;4960598;28;20055;-79
2023/04/28 12:04:28;;;;;;;1.15;0.88;;;14.20;99.90;;;;;;4962243;28;20591;-79
2023/04/28 12:07:06;;;;;;;0.30;0.30;;;14.30;99.90;;;;;;4960043;28;20078;-79
2023/04/28 12:09:33;;;;;;;1.20;0.73;;;14.40;99.90;;;;;;4960610;28;20068;-79
2023/04/28 12:12:02;;;;;;;0.57;0.50;;;14.40;99.90;;;;;;4964325;28;20050;-79
2023/04/28 12:14:29;;;;;;;1.85;0.77;;;14.40;99.90;;;;;;4964455;28;20043;-79
2023/04/28 12:16:55;;;;;;;0.55;0.28;;;14.50;99.90;;;;;;4964718;28;20677;-79
2023/04/28 12:19:21;;;;;;;1.10;0.98;;;14.70;99.90;;;;;;4965558;28;20134;-79
2023/04/28 12:22:04;;;;;;;4.55;1.10;;;14.70;99.90;;;;;;4963690;28;20112;-79
2023/04/28 12:24:30;;;;;;;0.28;0.28;;;14.80;99.90;;;;;;4963449;28;20486;-79
2023/04/28 12:27:16;;;;;;;1.30;1.20;;;14.80;99.90;;;;;;4963615;28;20059;-79
2023/04/28 12:29:44;;;;;;;0.65;0.43;;;14.80;99.90;;;;;;4963654;28;20404;-79
2023/04/28 12:32:11;;;;;;;0.50;0.47;;;14.60;99.90;;;;;;4964412;28;20050;-79
2023/04/28 12:34:38;;;;;;;1.10;0.40;;;14.70;99.90;;;;;;4964255;28;20047;-79
2023/04/28 12:37:05;;;;;;;0.28;0.28;;;14.40;99.90;;;;;;4964663;28;20051;-79
2023/04/28 12:39:32;;;;;;;1.25;0.95;;;14.30;99.90;;;;;;4964350;28;20676;-79
2023/04/28 12:42:03;;;;;;;0.17;0.17;;;14.20;99.90;;;;;;4963717;28;20127;-79
2023/04/28 12:44:36;;;;;;;0.88;0.85;;;14.40;99.90;;;;;;4964576;28;20051;-78
2023/04/28 12:47:06;;;;;;;0.52;0.45;;;14.20;99.90;;;;;;4963193;28;20638;-79
2023/04/28 12:49:33;;;;;;;0.35;0.32;;;14.30;99.90;;;;;;4963803;28;20130;-79
2023/04/28 12:51:59;;;;;;;1.08;0.75;;;14.00;99.90;;;;;;4964172;28;20047;-79
2023/04/28 12:54:25;;;;;;;0.47;0.43;;;14.00;99.90;;;;;;4965322;28;20043;-79
2023/04/28 12:56:53;;;;;;;0.93;0.82;;;14.10;99.90;;;;;;4962849;28;20384;-79